sensor_id;sensor_type;location;lat;lon;timestamp;P1;durP1;ratioP1;P2;durP2;ratioP2
44165;SDS011;30476;53.468;9.826;2023-07-24T00:01:20;1.20;;;1.10;;
44165;SDS011;30476;53.468;9.826;2023-07-24T00:03:45;1.00;;;0.90;;
44165;SDS011;30476;53.468;9.826;2023-07-24T00:06:11;1.63;;;1.53;;
44165;SDS011;30476;53.468;9.826;2023-07-24T00:08:37;0.97;;;0.97;;
44165;SDS011;30476;53.468;9.826;2023-07-24T00:11:06;1.30;;;1.23;;
44165;SDS011;30476;53.468;9.826;2023-07-24T00:13:32;1.23;;;1.13;;
44165;SDS011;30476;53.468;9.826;2023-07-24T00:15:58;1.00;;;1.00;;
44165;SDS011;30476;53.468;9.826;2023-07-24T00:18:24;1.20;;;1.10;;
44165;SDS011;30476;53.468;9.826;2023-07-24T00:20:50;1.10;;;1.00;;
44165;SDS011;30476;53.468;9.826;2023-07-24T00:23:15;1.10;;;1.10;;
44165;SDS011;30476;53.468;9.826;2023-07-24T00:25:41;1.40;;;1.03;;
44165;SDS011;30476;53.468;9.826;2023-07-24T00:28:07;1.10;;;1.00;;
44165;SDS011;30476;53.468;9.826;2023-07-24T00:30:33;1.33;;;1.23;;
44165;SDS011;30476;53.468;9.826;2023-07-24T00:32:59;1.20;;;1.10;;
44165;SDS011;30476;53.468;9.826;2023-07-24T00:35:25;1.40;;;1.30;;
44165;SDS011;30476;53.468;9.826;2023-07-24T00:37:51;0.90;;;0.90;;
44165;SDS011;30476;53.468;9.826;2023-07-24T00:40:17;1.13;;;1.03;;
44165;SDS011;30476;53.468;9.826;2023-07-24T00:42:47;1.47;;;1.37;;
44165;SDS011;30476;53.468;9.826;2023-07-24T00:45:13;1.20;;;1.10;;
44165;SDS011;30476;53.468;9.826;2023-07-24T00:47:40;1.10;;;1.10;;
44165;SDS011;30476;53.468;9.826;2023-07-24T00:50:07;1.20;;;1.00;;
44165;SDS011;30476;53.468;9.826;2023-07-24T00:52:33;1.40;;;1.20;;
44165;SDS011;30476;53.468;9.826;2023-07-24T00:54:59;1.57;;;1.47;;
44165;SDS011;30476;53.468;9.826;2023-07-24T00:57:25;1.30;;;1.20;;
44165;SDS011;30476;53.468;9.826;2023-07-24T00:59:51;1.10;;;1.00;;
44165;SDS011;30476;53.468;9.826;2023-07-24T01:02:17;0.90;;;0.90;;
44165;SDS011;30476;53.468;9.826;2023-07-24T01:04:43;1.43;;;1.27;;
44165;SDS011;30476;53.468;9.826;2023-07-24T01:07:09;1.60;;;1.17;;
44165;SDS011;30476;53.468;9.826;2023-07-24T01:09:35;1.37;;;1.27;;
44165;SDS011;30476;53.468;9.826;2023-07-24T01:14:44;1.20;;;1.10;;
44165;SDS011;30476;53.468;9.826;2023-07-24T01:17:15;3.90;;;1.77;;
44165;SDS011;30476;53.468;9.826;2023-07-24T01:19:48;1.27;;;1.17;;
44165;SDS011;30476;53.468;9.826;2023-07-24T01:22:23;1.50;;;1.23;;
44165;SDS011;30476;53.468;9.826;2023-07-24T01:25:05;1.20;;;1.10;;
44165;SDS011;30476;53.468;9.826;2023-07-24T01:27:45;1.33;;;1.23;;
44165;SDS011;30476;53.468;9.826;2023-07-24T01:30:13;1.30;;;1.20;;
44165;SDS011;30476;53.468;9.826;2023-07-24T01:32:44;1.07;;;0.90;;
44165;SDS011;30476;53.468;9.826;2023-07-24T01:35:10;1.03;;;1.00;;
44165;SDS011;30476;53.468;9.826;2023-07-24T01:37:37;1.83;;;1.73;;
44165;SDS011;30476;53.468;9.826;2023-07-24T01:40:08;3.60;;;1.60;;
44165;SDS011;30476;53.468;9.826;2023-07-24T01:42:36;1.40;;;1.20;;
44165;SDS011;30476;53.468;9.826;2023-07-24T01:45:02;1.30;;;1.20;;
44165;SDS011;30476;53.468;9.826;2023-07-24T01:47:29;1.57;;;1.47;;
44165;SDS011;30476;53.468;9.826;2023-07-24T01:49:55;1.27;;;1.20;;
44165;SDS011;30476;53.468;9.826;2023-07-24T01:52:21;0.83;;;0.83;;
44165;SDS011;30476;53.468;9.826;2023-07-24T01:54:47;1.00;;;1.00;;
44165;SDS011;30476;53.468;9.826;2023-07-24T01:57:13;1.83;;;1.17;;
44165;SDS011;30476;53.468;9.826;2023-07-24T01:59:39;1.27;;;1.17;;
44165;SDS011;30476;53.468;9.826;2023-07-24T02:02:05;1.43;;;1.33;;
44165;SDS011;30476;53.468;9.826;2023-07-24T02:04:30;1.40;;;1.30;;
44165;SDS011;30476;53.468;9.826;2023-07-24T02:06:56;1.43;;;1.33;;
44165;SDS011;30476;53.468;9.826;2023-07-24T02:09:22;1.53;;;1.20;;
44165;SDS011;30476;53.468;9.826;2023-07-24T02:11:48;1.20;;;1.10;;
44165;SDS011;30476;53.468;9.826;2023-07-24T02:14:14;1.57;;;1.23;;
44165;SDS011;30476;53.468;9.826;2023-07-24T02:16:41;1.63;;;1.30;;
44165;SDS011;30476;53.468;9.826;2023-07-24T02:19:07;1.10;;;1.10;;
44165;SDS011;30476;53.468;9.826;2023-07-24T02:21:33;1.30;;;1.20;;
44165;SDS011;30476;53.468;9.826;2023-07-24T02:23:59;1.40;;;1.33;;
44165;SDS011;30476;53.468;9.826;2023-07-24T02:26:25;1.27;;;1.10;;
44165;SDS011;30476;53.468;9.826;2023-07-24T02:28:50;1.20;;;1.20;;
44165;SDS011;30476;53.468;9.826;2023-07-24T02:31:16;1.60;;;1.40;;
44165;SDS011;30476;53.468;9.826;2023-07-24T02:33:42;1.80;;;1.70;;
44165;SDS011;30476;53.468;9.826;2023-07-24T02:36:08;1.20;;;1.10;;
44165;SDS011;30476;53.468;9.826;2023-07-24T02:38:33;1.20;;;1.10;;
44165;SDS011;30476;53.468;9.826;2023-07-24T02:40:59;3.27;;;1.40;;
44165;SDS011;30476;53.468;9.826;2023-07-24T02:43:25;1.40;;;1.30;;
44165;SDS011;30476;53.468;9.826;2023-07-24T02:45:51;1.13;;;0.93;;
44165;SDS011;30476;53.468;9.826;2023-07-24T02:48:17;2.17;;;1.50;;
44165;SDS011;30476;53.468;9.826;2023-07-24T02:50:42;1.77;;;1.47;;
44165;SDS011;30476;53.468;9.826;2023-07-24T02:53:08;2.03;;;1.27;;
44165;SDS011;30476;53.468;9.826;2023-07-24T02:55:34;1.37;;;1.27;;
44165;SDS011;30476;53.468;9.826;2023-07-24T02:58:00;6.20;;;1.07;;
44165;SDS011;30476;53.468;9.826;2023-07-24T03:00:25;1.30;;;1.20;;
44165;SDS011;30476;53.468;9.826;2023-07-24T03:02:54;1.30;;;1.20;;
44165;SDS011;30476;53.468;9.826;2023-07-24T03:05:20;1.33;;;1.13;;
44165;SDS011;30476;53.468;9.826;2023-07-24T03:07:46;1.33;;;1.23;;
44165;SDS011;30476;53.468;9.826;2023-07-24T03:10:11;1.43;;;1.33;;
44165;SDS011;30476;53.468;9.826;2023-07-24T03:12:37;1.53;;;1.10;;
44165;SDS011;30476;53.468;9.826;2023-07-24T03:15:03;1.37;;;1.23;;
44165;SDS011;30476;53.468;9.826;2023-07-24T03:17:29;1.53;;;1.37;;
44165;SDS011;30476;53.468;9.826;2023-07-24T03:19:55;4.93;;;1.70;;
44165;SDS011;30476;53.468;9.826;2023-07-24T03:22:20;1.60;;;1.20;;
44165;SDS011;30476;53.468;9.826;2023-07-24T03:24:46;1.70;;;1.50;;
44165;SDS011;30476;53.468;9.826;2023-07-24T03:27:12;2.40;;;1.40;;
44165;SDS011;30476;53.468;9.826;2023-07-24T03:29:38;1.43;;;1.33;;
44165;SDS011;30476;53.468;9.826;2023-07-24T03:32:06;1.30;;;1.20;;
44165;SDS011;30476;53.468;9.826;2023-07-24T03:34:32;1.63;;;1.27;;
44165;SDS011;30476;53.468;9.826;2023-07-24T03:36:58;2.70;;;1.60;;
44165;SDS011;30476;53.468;9.826;2023-07-24T03:39:24;5.67;;;1.70;;
44165;SDS011;30476;53.468;9.826;2023-07-24T03:41:49;2.17;;;1.60;;
44165;SDS011;30476;53.468;9.826;2023-07-24T03:44:15;2.00;;;1.83;;
44165;SDS011;30476;53.468;9.826;2023-07-24T03:46:41;1.50;;;1.17;;
44165;SDS011;30476;53.468;9.826;2023-07-24T03:49:07;3.00;;;1.70;;
44165;SDS011;30476;53.468;9.826;2023-07-24T03:51:32;1.37;;;1.27;;
44165;SDS011;30476;53.468;9.826;2023-07-24T03:53:58;1.40;;;1.30;;
44165;SDS011;30476;53.468;9.826;2023-07-24T03:56:24;1.60;;;1.40;;
44165;SDS011;30476;53.468;9.826;2023-07-24T03:58:50;1.97;;;1.77;;
44165;SDS011;30476;53.468;9.826;2023-07-24T04:01:15;1.87;;;1.77;;
44165;SDS011;30476;53.468;9.826;2023-07-24T04:03:41;1.73;;;1.63;;
44165;SDS011;30476;53.468;9.826;2023-07-24T04:06:07;2.90;;;1.57;;
44165;SDS011;30476;53.468;9.826;2023-07-24T04:08:33;1.83;;;1.43;;
44165;SDS011;30476;53.468;9.826;2023-07-24T04:10:58;1.47;;;1.37;;
44165;SDS011;30476;53.468;9.826;2023-07-24T04:13:24;2.07;;;1.70;;
44165;SDS011;30476;53.468;9.826;2023-07-24T04:15:50;1.77;;;1.67;;
44165;SDS011;30476;53.468;9.826;2023-07-24T04:18:16;1.27;;;1.17;;
44165;SDS011;30476;53.468;9.826;2023-07-24T04:20:41;1.40;;;1.30;;
44165;SDS011;30476;53.468;9.826;2023-07-24T04:23:07;1.40;;;1.30;;
44165;SDS011;30476;53.468;9.826;2023-07-24T04:25:33;2.10;;;1.27;;
44165;SDS011;30476;53.468;9.826;2023-07-24T04:27:59;1.40;;;1.30;;
44165;SDS011;30476;53.468;9.826;2023-07-24T04:30:25;1.80;;;1.60;;
44165;SDS011;30476;53.468;9.826;2023-07-24T04:32:50;1.70;;;1.60;;
44165;SDS011;30476;53.468;9.826;2023-07-24T04:35:16;1.40;;;1.30;;
44165;SDS011;30476;53.468;9.826;2023-07-24T04:37:42;1.47;;;1.37;;
44165;SDS011;30476;53.468;9.826;2023-07-24T04:40:08;1.70;;;1.60;;
44165;SDS011;30476;53.468;9.826;2023-07-24T04:42:34;1.43;;;1.33;;
44165;SDS011;30476;53.468;9.826;2023-07-24T04:45:00;1.40;;;1.30;;
44165;SDS011;30476;53.468;9.826;2023-07-24T04:47:25;1.80;;;1.70;;
44165;SDS011;30476;53.468;9.826;2023-07-24T04:49:51;2.60;;;1.30;;
44165;SDS011;30476;53.468;9.826;2023-07-24T04:52:17;1.60;;;1.50;;
44165;SDS011;30476;53.468;9.826;2023-07-24T04:54:44;2.37;;;1.80;;
44165;SDS011;30476;53.468;9.826;2023-07-24T04:57:10;1.67;;;1.57;;
44165;SDS011;30476;53.468;9.826;2023-07-24T04:59:35;2.10;;;1.80;;
44165;SDS011;30476;53.468;9.826;2023-07-24T05:02:01;1.50;;;1.40;;
44165;SDS011;30476;53.468;9.826;2023-07-24T05:04:27;2.30;;;1.73;;
44165;SDS011;30476;53.468;9.826;2023-07-24T05:06:53;2.33;;;1.63;;
44165;SDS011;30476;53.468;9.826;2023-07-24T05:09:19;1.50;;;1.40;;
44165;SDS011;30476;53.468;9.826;2023-07-24T05:11:44;1.90;;;1.53;;
44165;SDS011;30476;53.468;9.826;2023-07-24T05:14:10;1.60;;;1.30;;
44165;SDS011;30476;53.468;9.826;2023-07-24T05:16:36;1.60;;;1.50;;
44165;SDS011;30476;53.468;9.826;2023-07-24T05:19:01;1.63;;;1.53;;
44165;SDS011;30476;53.468;9.826;2023-07-24T05:21:27;1.37;;;1.27;;
44165;SDS011;30476;53.468;9.826;2023-07-24T05:23:53;1.30;;;1.20;;
44165;SDS011;30476;53.468;9.826;2023-07-24T05:26:19;1.73;;;1.63;;
44165;SDS011;30476;53.468;9.826;2023-07-24T05:28:44;1.33;;;1.23;;
44165;SDS011;30476;53.468;9.826;2023-07-24T05:31:11;1.67;;;1.57;;
44165;SDS011;30476;53.468;9.826;2023-07-24T05:33:37;4.53;;;1.67;;
44165;SDS011;30476;53.468;9.826;2023-07-24T05:36:03;2.83;;;1.27;;
44165;SDS011;30476;53.468;9.826;2023-07-24T05:38:29;1.40;;;1.30;;
44165;SDS011;30476;53.468;9.826;2023-07-24T05:40:56;1.30;;;1.13;;
44165;SDS011;30476;53.468;9.826;2023-07-24T05:43:21;1.70;;;1.60;;
44165;SDS011;30476;53.468;9.826;2023-07-24T05:45:47;1.27;;;1.17;;
44165;SDS011;30476;53.468;9.826;2023-07-24T05:48:13;1.50;;;1.40;;
44165;SDS011;30476;53.468;9.826;2023-07-24T05:50:39;1.40;;;1.30;;
44165;SDS011;30476;53.468;9.826;2023-07-24T05:53:06;1.97;;;1.43;;
44165;SDS011;30476;53.468;9.826;2023-07-24T05:55:32;1.80;;;1.70;;
44165;SDS011;30476;53.468;9.826;2023-07-24T05:57:57;1.60;;;1.50;;
44165;SDS011;30476;53.468;9.826;2023-07-24T06:00:23;1.30;;;1.20;;
44165;SDS011;30476;53.468;9.826;2023-07-24T06:02:49;1.10;;;1.10;;
44165;SDS011;30476;53.468;9.826;2023-07-24T06:05:15;1.40;;;1.30;;
44165;SDS011;30476;53.468;9.826;2023-07-24T06:07:40;1.50;;;1.20;;
44165;SDS011;30476;53.468;9.826;2023-07-24T06:10:06;1.57;;;1.47;;
44165;SDS011;30476;53.468;9.826;2023-07-24T06:12:32;1.50;;;1.40;;
44165;SDS011;30476;53.468;9.826;2023-07-24T06:14:58;1.93;;;1.40;;
44165;SDS011;30476;53.468;9.826;2023-07-24T06:17:24;1.87;;;1.70;;
44165;SDS011;30476;53.468;9.826;2023-07-24T06:19:49;1.30;;;1.20;;
44165;SDS011;30476;53.468;9.826;2023-07-24T06:22:15;1.10;;;1.00;;
44165;SDS011;30476;53.468;9.826;2023-07-24T06:24:41;1.20;;;1.10;;
44165;SDS011;30476;53.468;9.826;2023-07-24T06:27:07;1.20;;;1.10;;
44165;SDS011;30476;53.468;9.826;2023-07-24T06:29:33;1.53;;;1.43;;
44165;SDS011;30476;53.468;9.826;2023-07-24T06:31:58;1.47;;;1.37;;
44165;SDS011;30476;53.468;9.826;2023-07-24T06:34:24;1.47;;;1.00;;
44165;SDS011;30476;53.468;9.826;2023-07-24T06:36:50;1.10;;;1.10;;
44165;SDS011;30476;53.468;9.826;2023-07-24T06:39:16;1.40;;;1.30;;
44165;SDS011;30476;53.468;9.826;2023-07-24T06:41:42;1.30;;;1.20;;
44165;SDS011;30476;53.468;9.826;2023-07-24T06:44:07;0.97;;;0.97;;
44165;SDS011;30476;53.468;9.826;2023-07-24T06:46:33;1.30;;;1.20;;
44165;SDS011;30476;53.468;9.826;2023-07-24T06:48:59;1.57;;;1.47;;
44165;SDS011;30476;53.468;9.826;2023-07-24T06:51:25;1.93;;;1.30;;
44165;SDS011;30476;53.468;9.826;2023-07-24T06:53:51;1.07;;;1.07;;
44165;SDS011;30476;53.468;9.826;2023-07-24T06:56:16;2.00;;;1.07;;
44165;SDS011;30476;53.468;9.826;2023-07-24T06:58:42;1.10;;;1.00;;
44165;SDS011;30476;53.468;9.826;2023-07-24T07:01:08;1.23;;;1.13;;
44165;SDS011;30476;53.468;9.826;2023-07-24T07:03:34;1.20;;;1.10;;
44165;SDS011;30476;53.468;9.826;2023-07-24T07:06:02;1.30;;;1.20;;
44165;SDS011;30476;53.468;9.826;2023-07-24T07:08:29;1.30;;;1.20;;
44165;SDS011;30476;53.468;9.826;2023-07-24T07:10:59;1.30;;;1.20;;
44165;SDS011;30476;53.468;9.826;2023-07-24T07:13:25;1.00;;;1.00;;
44165;SDS011;30476;53.468;9.826;2023-07-24T07:15:51;1.53;;;1.43;;
44165;SDS011;30476;53.468;9.826;2023-07-24T07:18:17;1.20;;;1.10;;
44165;SDS011;30476;53.468;9.826;2023-07-24T07:20:46;1.37;;;1.27;;
44165;SDS011;30476;53.468;9.826;2023-07-24T07:23:13;1.30;;;1.20;;
44165;SDS011;30476;53.468;9.826;2023-07-24T07:25:39;1.70;;;1.60;;
44165;SDS011;30476;53.468;9.826;2023-07-24T07:28:05;1.43;;;1.33;;
44165;SDS011;30476;53.468;9.826;2023-07-24T07:30:31;1.70;;;1.27;;
44165;SDS011;30476;53.468;9.826;2023-07-24T07:32:56;1.97;;;1.87;;
44165;SDS011;30476;53.468;9.826;2023-07-24T07:35:22;2.03;;;1.70;;
44165;SDS011;30476;53.468;9.826;2023-07-24T07:37:48;1.73;;;1.63;;
44165;SDS011;30476;53.468;9.826;2023-07-24T07:40:14;1.80;;;1.70;;
44165;SDS011;30476;53.468;9.826;2023-07-24T07:42:40;1.93;;;1.83;;
44165;SDS011;30476;53.468;9.826;2023-07-24T07:45:06;1.80;;;1.70;;
44165;SDS011;30476;53.468;9.826;2023-07-24T07:47:32;1.90;;;1.80;;
44165;SDS011;30476;53.468;9.826;2023-07-24T07:49:58;2.10;;;1.93;;
44165;SDS011;30476;53.468;9.826;2023-07-24T07:52:24;2.70;;;1.53;;
44165;SDS011;30476;53.468;9.826;2023-07-24T07:54:49;1.57;;;1.47;;
44165;SDS011;30476;53.468;9.826;2023-07-24T07:57:15;2.60;;;2.37;;
44165;SDS011;30476;53.468;9.826;2023-07-24T07:59:41;1.90;;;1.80;;
44165;SDS011;30476;53.468;9.826;2023-07-24T08:02:07;2.00;;;1.90;;
44165;SDS011;30476;53.468;9.826;2023-07-24T08:04:33;2.00;;;1.90;;
44165;SDS011;30476;53.468;9.826;2023-07-24T08:06:59;2.27;;;2.00;;
44165;SDS011;30476;53.468;9.826;2023-07-24T08:09:25;2.80;;;1.83;;
44165;SDS011;30476;53.468;9.826;2023-07-24T08:11:51;2.07;;;1.60;;
44165;SDS011;30476;53.468;9.826;2023-07-24T08:14:17;1.83;;;1.73;;
44165;SDS011;30476;53.468;9.826;2023-07-24T08:16:43;2.90;;;1.97;;
44165;SDS011;30476;53.468;9.826;2023-07-24T08:19:08;2.97;;;2.77;;
44165;SDS011;30476;53.468;9.826;2023-07-24T08:21:34;2.20;;;2.00;;
44165;SDS011;30476;53.468;9.826;2023-07-24T08:24:01;2.13;;;1.70;;
44165;SDS011;30476;53.468;9.826;2023-07-24T08:26:27;2.00;;;1.90;;
44165;SDS011;30476;53.468;9.826;2023-07-24T08:28:53;2.40;;;2.20;;
44165;SDS011;30476;53.468;9.826;2023-07-24T08:31:19;2.53;;;2.03;;
44165;SDS011;30476;53.468;9.826;2023-07-24T08:33:45;2.37;;;2.17;;
44165;SDS011;30476;53.468;9.826;2023-07-24T08:36:11;3.10;;;2.47;;
44165;SDS011;30476;53.468;9.826;2023-07-24T08:38:38;2.37;;;2.17;;
44165;SDS011;30476;53.468;9.826;2023-07-24T08:41:09;1.70;;;1.60;;
44165;SDS011;30476;53.468;9.826;2023-07-24T08:43:37;2.37;;;2.17;;
44165;SDS011;30476;53.468;9.826;2023-07-24T08:46:04;1.90;;;1.80;;
44165;SDS011;30476;53.468;9.826;2023-07-24T08:48:31;2.10;;;2.00;;
44165;SDS011;30476;53.468;9.826;2023-07-24T08:51:01;1.80;;;1.70;;
44165;SDS011;30476;53.468;9.826;2023-07-24T08:53:32;3.10;;;2.90;;
44165;SDS011;30476;53.468;9.826;2023-07-24T08:56:02;3.07;;;2.30;;
44165;SDS011;30476;53.468;9.826;2023-07-24T08:58:29;2.60;;;2.00;;
44165;SDS011;30476;53.468;9.826;2023-07-24T09:00:56;9.80;;;2.83;;
44165;SDS011;30476;53.468;9.826;2023-07-24T09:03:22;4.30;;;2.93;;
44165;SDS011;30476;53.468;9.826;2023-07-24T09:05:48;4.53;;;2.40;;
44165;SDS011;30476;53.468;9.826;2023-07-24T09:08:14;5.40;;;2.70;;
44165;SDS011;30476;53.468;9.826;2023-07-24T09:10:40;3.40;;;3.10;;
44165;SDS011;30476;53.468;9.826;2023-07-24T09:13:06;2.90;;;2.70;;
44165;SDS011;30476;53.468;9.826;2023-07-24T09:15:44;3.20;;;3.10;;
44165;SDS011;30476;53.468;9.826;2023-07-24T09:18:11;2.63;;;2.43;;
44165;SDS011;30476;53.468;9.826;2023-07-24T09:20:41;4.33;;;3.90;;
44165;SDS011;30476;53.468;9.826;2023-07-24T09:23:08;3.80;;;2.90;;
44165;SDS011;30476;53.468;9.826;2023-07-24T09:25:37;3.17;;;2.87;;
44165;SDS011;30476;53.468;9.826;2023-07-24T09:28:10;2.90;;;2.60;;
44165;SDS011;30476;53.468;9.826;2023-07-24T09:30:38;6.60;;;3.63;;
44165;SDS011;30476;53.468;9.826;2023-07-24T09:33:04;4.00;;;3.70;;
44165;SDS011;30476;53.468;9.826;2023-07-24T09:35:30;4.40;;;4.00;;
44165;SDS011;30476;53.468;9.826;2023-07-24T09:38:06;3.13;;;2.83;;
44165;SDS011;30476;53.468;9.826;2023-07-24T09:40:39;3.23;;;2.73;;
44165;SDS011;30476;53.468;9.826;2023-07-24T09:43:16;3.40;;;3.20;;
44165;SDS011;30476;53.468;9.826;2023-07-24T09:45:43;3.60;;;3.40;;
44165;SDS011;30476;53.468;9.826;2023-07-24T09:48:10;3.17;;;2.97;;
44165;SDS011;30476;53.468;9.826;2023-07-24T09:50:39;3.43;;;3.17;;
44165;SDS011;30476;53.468;9.826;2023-07-24T09:53:18;2.87;;;2.67;;
44165;SDS011;30476;53.468;9.826;2023-07-24T09:56:02;4.30;;;4.10;;
44165;SDS011;30476;53.468;9.826;2023-07-24T09:58:31;3.47;;;3.23;;
44165;SDS011;30476;53.468;9.826;2023-07-24T10:00:58;4.50;;;4.10;;
44165;SDS011;30476;53.468;9.826;2023-07-24T10:03:25;4.23;;;3.93;;
44165;SDS011;30476;53.468;9.826;2023-07-24T10:05:52;3.23;;;3.03;;
44165;SDS011;30476;53.468;9.826;2023-07-24T10:08:18;3.70;;;3.40;;
44165;SDS011;30476;53.468;9.826;2023-07-24T10:10:44;4.03;;;3.73;;
44165;SDS011;30476;53.468;9.826;2023-07-24T10:13:11;4.97;;;4.40;;
44165;SDS011;30476;53.468;9.826;2023-07-24T10:15:43;3.70;;;3.50;;
44165;SDS011;30476;53.468;9.826;2023-07-24T10:18:10;4.10;;;3.80;;
44165;SDS011;30476;53.468;9.826;2023-07-24T10:20:38;3.87;;;3.57;;
44165;SDS011;30476;53.468;9.826;2023-07-24T10:23:05;3.03;;;2.83;;
44165;SDS011;30476;53.468;9.826;2023-07-24T10:25:32;3.10;;;2.90;;
44165;SDS011;30476;53.468;9.826;2023-07-24T10:30:36;3.23;;;3.03;;
44165;SDS011;30476;53.468;9.826;2023-07-24T10:33:03;3.67;;;3.37;;
44165;SDS011;30476;53.468;9.826;2023-07-24T10:35:39;3.43;;;3.13;;
44165;SDS011;30476;53.468;9.826;2023-07-24T10:38:13;3.27;;;2.97;;
44165;SDS011;30476;53.468;9.826;2023-07-24T10:40:40;2.20;;;2.10;;
44165;SDS011;30476;53.468;9.826;2023-07-24T10:43:11;2.30;;;2.20;;
44165;SDS011;30476;53.468;9.826;2023-07-24T10:45:49;2.20;;;2.10;;
44165;SDS011;30476;53.468;9.826;2023-07-24T10:48:17;2.67;;;2.53;;
44165;SDS011;30476;53.468;9.826;2023-07-24T10:50:44;2.00;;;1.90;;
44165;SDS011;30476;53.468;9.826;2023-07-24T10:53:13;3.27;;;2.97;;
44165;SDS011;30476;53.468;9.826;2023-07-24T10:55:43;2.30;;;2.20;;
44165;SDS011;30476;53.468;9.826;2023-07-24T10:58:11;2.57;;;2.37;;
44165;SDS011;30476;53.468;9.826;2023-07-24T11:00:41;2.33;;;2.13;;
44165;SDS011;30476;53.468;9.826;2023-07-24T11:03:11;2.57;;;2.47;;
44165;SDS011;30476;53.468;9.826;2023-07-24T11:05:44;2.40;;;2.30;;
44165;SDS011;30476;53.468;9.826;2023-07-24T11:08:12;2.87;;;2.67;;
44165;SDS011;30476;53.468;9.826;2023-07-24T11:13:16;2.50;;;2.30;;
44165;SDS011;30476;53.468;9.826;2023-07-24T11:15:43;2.40;;;2.30;;
44165;SDS011;30476;53.468;9.826;2023-07-24T11:18:09;3.47;;;3.27;;
44165;SDS011;30476;53.468;9.826;2023-07-24T11:20:46;4.00;;;3.70;;
44165;SDS011;30476;53.468;9.826;2023-07-24T11:23:13;4.77;;;4.17;;
44165;SDS011;30476;53.468;9.826;2023-07-24T11:25:39;3.33;;;3.13;;
44165;SDS011;30476;53.468;9.826;2023-07-24T11:28:05;3.90;;;3.63;;
44165;SDS011;30476;53.468;9.826;2023-07-24T11:30:32;4.00;;;3.70;;
44165;SDS011;30476;53.468;9.826;2023-07-24T11:33:00;3.47;;;3.27;;
44165;SDS011;30476;53.468;9.826;2023-07-24T11:35:27;2.60;;;2.50;;
44165;SDS011;30476;53.468;9.826;2023-07-24T11:37:53;3.63;;;3.37;;
44165;SDS011;30476;53.468;9.826;2023-07-24T11:40:19;3.23;;;3.07;;
44165;SDS011;30476;53.468;9.826;2023-07-24T11:42:46;2.77;;;2.57;;
44165;SDS011;30476;53.468;9.826;2023-07-24T11:45:13;2.80;;;2.70;;
44165;SDS011;30476;53.468;9.826;2023-07-24T11:50:12;2.53;;;2.43;;
44165;SDS011;30476;53.468;9.826;2023-07-24T11:52:40;2.80;;;2.60;;
44165;SDS011;30476;53.468;9.826;2023-07-24T11:55:09;2.70;;;2.60;;
44165;SDS011;30476;53.468;9.826;2023-07-24T11:57:43;3.00;;;2.80;;
44165;SDS011;30476;53.468;9.826;2023-07-24T12:00:26;2.63;;;2.43;;
44165;SDS011;30476;53.468;9.826;2023-07-24T12:02:55;2.80;;;2.60;;
44165;SDS011;30476;53.468;9.826;2023-07-24T12:05:24;2.43;;;2.30;;
44165;SDS011;30476;53.468;9.826;2023-07-24T12:07:53;2.40;;;2.20;;
44165;SDS011;30476;53.468;9.826;2023-07-24T12:10:26;2.30;;;2.10;;
44165;SDS011;30476;53.468;9.826;2023-07-24T12:12:53;1.97;;;1.87;;
44165;SDS011;30476;53.468;9.826;2023-07-24T12:15:20;2.00;;;1.90;;
44165;SDS011;30476;53.468;9.826;2023-07-24T12:17:46;3.33;;;3.13;;
44165;SDS011;30476;53.468;9.826;2023-07-24T12:20:11;2.57;;;2.37;;
44165;SDS011;30476;53.468;9.826;2023-07-24T12:22:37;2.40;;;2.03;;
44165;SDS011;30476;53.468;9.826;2023-07-24T12:25:04;2.87;;;2.40;;
44165;SDS011;30476;53.468;9.826;2023-07-24T12:27:31;2.43;;;2.33;;
44165;SDS011;30476;53.468;9.826;2023-07-24T12:29:57;2.07;;;1.97;;
44165;SDS011;30476;53.468;9.826;2023-07-24T12:32:23;2.50;;;2.30;;
44165;SDS011;30476;53.468;9.826;2023-07-24T12:34:50;1.70;;;1.60;;
44165;SDS011;30476;53.468;9.826;2023-07-24T12:37:17;2.20;;;2.10;;
44165;SDS011;30476;53.468;9.826;2023-07-24T12:39:44;2.77;;;2.57;;
44165;SDS011;30476;53.468;9.826;2023-07-24T12:42:11;1.83;;;1.73;;
44165;SDS011;30476;53.468;9.826;2023-07-24T12:44:37;1.83;;;1.73;;
44165;SDS011;30476;53.468;9.826;2023-07-24T12:47:03;2.33;;;2.13;;
44165;SDS011;30476;53.468;9.826;2023-07-24T12:49:29;1.70;;;1.60;;
44165;SDS011;30476;53.468;9.826;2023-07-24T12:51:56;2.10;;;1.97;;
44165;SDS011;30476;53.468;9.826;2023-07-24T12:54:21;1.83;;;1.73;;
44165;SDS011;30476;53.468;9.826;2023-07-24T12:56:48;1.93;;;1.83;;
44165;SDS011;30476;53.468;9.826;2023-07-24T12:59:14;2.00;;;1.90;;
44165;SDS011;30476;53.468;9.826;2023-07-24T13:01:40;1.70;;;1.60;;
44165;SDS011;30476;53.468;9.826;2023-07-24T13:04:07;1.87;;;1.77;;
44165;SDS011;30476;53.468;9.826;2023-07-24T13:06:33;3.60;;;1.90;;
44165;SDS011;30476;53.468;9.826;2023-07-24T13:08:58;1.73;;;1.63;;
44165;SDS011;30476;53.468;9.826;2023-07-24T13:11:24;1.87;;;1.73;;
44165;SDS011;30476;53.468;9.826;2023-07-24T13:13:49;3.73;;;2.07;;
44165;SDS011;30476;53.468;9.826;2023-07-24T13:16:16;2.40;;;2.20;;
44165;SDS011;30476;53.468;9.826;2023-07-24T13:18:42;2.53;;;2.33;;
44165;SDS011;30476;53.468;9.826;2023-07-24T13:21:08;1.90;;;1.80;;
44165;SDS011;30476;53.468;9.826;2023-07-24T13:23:34;2.20;;;2.00;;
44165;SDS011;30476;53.468;9.826;2023-07-24T13:25:59;2.17;;;1.90;;
44165;SDS011;30476;53.468;9.826;2023-07-24T13:28:25;2.60;;;1.90;;
44165;SDS011;30476;53.468;9.826;2023-07-24T13:30:51;1.93;;;1.83;;
44165;SDS011;30476;53.468;9.826;2023-07-24T13:33:16;2.30;;;1.60;;
44165;SDS011;30476;53.468;9.826;2023-07-24T13:35:42;1.60;;;1.50;;
44165;SDS011;30476;53.468;9.826;2023-07-24T13:38:08;1.63;;;1.53;;
44165;SDS011;30476;53.468;9.826;2023-07-24T13:40:34;2.60;;;2.37;;
44165;SDS011;30476;53.468;9.826;2023-07-24T13:43:00;2.43;;;2.00;;
44165;SDS011;30476;53.468;9.826;2023-07-24T13:45:27;2.03;;;1.93;;
44165;SDS011;30476;53.468;9.826;2023-07-24T13:47:54;2.40;;;2.20;;
44165;SDS011;30476;53.468;9.826;2023-07-24T13:50:21;1.50;;;1.40;;
44165;SDS011;30476;53.468;9.826;2023-07-24T13:52:47;2.00;;;1.90;;
44165;SDS011;30476;53.468;9.826;2023-07-24T13:55:13;2.63;;;1.90;;
44165;SDS011;30476;53.468;9.826;2023-07-24T13:57:39;2.50;;;2.30;;
44165;SDS011;30476;53.468;9.826;2023-07-24T14:00:05;2.47;;;2.03;;
44165;SDS011;30476;53.468;9.826;2023-07-24T14:02:31;2.03;;;1.83;;
44165;SDS011;30476;53.468;9.826;2023-07-24T14:04:57;2.00;;;1.87;;
44165;SDS011;30476;53.468;9.826;2023-07-24T14:07:23;1.77;;;1.67;;
44165;SDS011;30476;53.468;9.826;2023-07-24T14:09:48;2.37;;;2.00;;
44165;SDS011;30476;53.468;9.826;2023-07-24T14:12:14;2.57;;;2.23;;
44165;SDS011;30476;53.468;9.826;2023-07-24T14:14:40;3.00;;;2.67;;
44165;SDS011;30476;53.468;9.826;2023-07-24T14:17:06;3.03;;;2.83;;
44165;SDS011;30476;53.468;9.826;2023-07-24T14:19:32;2.13;;;2.03;;
44165;SDS011;30476;53.468;9.826;2023-07-24T14:21:57;2.30;;;2.20;;
44165;SDS011;30476;53.468;9.826;2023-07-24T14:24:23;2.30;;;2.10;;
44165;SDS011;30476;53.468;9.826;2023-07-24T14:26:49;2.77;;;2.57;;
44165;SDS011;30476;53.468;9.826;2023-07-24T14:29:14;2.23;;;2.03;;
44165;SDS011;30476;53.468;9.826;2023-07-24T14:31:43;2.90;;;2.70;;
44165;SDS011;30476;53.468;9.826;2023-07-24T14:34:09;2.27;;;2.07;;
44165;SDS011;30476;53.468;9.826;2023-07-24T14:36:37;2.73;;;2.33;;
44165;SDS011;30476;53.468;9.826;2023-07-24T14:39:03;2.77;;;2.57;;
44165;SDS011;30476;53.468;9.826;2023-07-24T14:41:29;3.00;;;2.50;;
44165;SDS011;30476;53.468;9.826;2023-07-24T14:43:55;3.80;;;2.40;;
44165;SDS011;30476;53.468;9.826;2023-07-24T14:46:21;2.53;;;2.43;;
44165;SDS011;30476;53.468;9.826;2023-07-24T14:48:47;2.80;;;2.60;;
44165;SDS011;30476;53.468;9.826;2023-07-24T14:51:14;2.93;;;2.73;;
44165;SDS011;30476;53.468;9.826;2023-07-24T14:53:40;2.10;;;1.93;;
44165;SDS011;30476;53.468;9.826;2023-07-24T14:56:06;3.43;;;2.20;;